createdAt,value
2023-02-05T00:00:36.993Z,8.10
2023-02-05T00:03:03.415Z,8.10
2023-02-05T00:05:29.808Z,8.00
2023-02-05T00:07:56.234Z,8.10
2023-02-05T00:10:22.609Z,8.10
2023-02-05T00:12:49.035Z,8.10
2023-02-05T00:15:15.480Z,8.10
2023-02-05T00:17:41.947Z,8.10
2023-02-05T00:20:08.436Z,8.10
2023-02-05T00:22:34.853Z,8.10
2023-02-05T00:25:01.232Z,8.00
2023-02-05T00:27:27.593Z,8.10
2023-02-05T00:29:53.976Z,8.10
2023-02-05T00:32:20.357Z,8.10
2023-02-05T00:34:46.792Z,8.00
2023-02-05T00:37:13.190Z,8.00
2023-02-05T00:39:39.604Z,8.00
2023-02-05T00:42:06.039Z,8.00
2023-02-05T00:44:32.432Z,8.00
2023-02-05T00:46:58.828Z,8.00
2023-02-05T00:49:25.235Z,7.90
2023-02-05T00:51:51.669Z,7.90
2023-02-05T00:54:18.104Z,7.80
2023-02-05T00:56:44.532Z,7.80
2023-02-05T00:59:11.105Z,7.90
2023-02-05T01:01:37.564Z,7.90
2023-02-05T01:04:03.990Z,7.90
2023-02-05T01:06:30.419Z,8.00
2023-02-05T01:08:56.805Z,8.00
2023-02-05T01:11:23.224Z,8.00
2023-02-05T01:13:49.667Z,8.00
2023-02-05T01:16:16.206Z,8.00
2023-02-05T01:18:42.767Z,8.10
2023-02-05T01:21:09.197Z,8.10
2023-02-05T01:23:35.642Z,8.10
2023-02-05T01:26:02.051Z,8.10
2023-02-05T01:28:28.669Z,8.10
2023-02-05T01:30:55.112Z,8.10
2023-02-05T01:33:21.515Z,8.10
2023-02-05T01:35:47.905Z,8.10
2023-02-05T01:38:14.328Z,8.20
2023-02-05T01:40:40.766Z,8.20
2023-02-05T01:43:07.157Z,8.20
2023-02-05T01:45:33.801Z,8.20
2023-02-05T01:48:00.333Z,8.30
2023-02-05T01:50:26.709Z,8.20
2023-02-05T01:52:53.100Z,8.20
2023-02-05T01:55:19.456Z,8.30
2023-02-05T01:57:45.843Z,8.20
2023-02-05T02:00:12.261Z,8.20
2023-02-05T02:02:38.688Z,8.20
2023-02-05T02:05:05.148Z,8.20
2023-02-05T02:07:31.550Z,8.20
2023-02-05T02:09:57.939Z,8.30
2023-02-05T02:12:24.311Z,8.30
2023-02-05T02:14:50.735Z,8.30
2023-02-05T02:17:17.189Z,8.30
2023-02-05T02:19:43.622Z,8.30
2023-02-05T02:22:10.056Z,8.30
2023-02-05T02:24:36.458Z,8.30
2023-02-05T02:27:02.835Z,8.30
2023-02-05T02:29:29.214Z,8.30
2023-02-05T02:31:55.593Z,8.30
2023-02-05T02:34:22.058Z,8.30
2023-02-05T02:36:48.462Z,8.30
2023-02-05T02:39:14.890Z,8.40
2023-02-05T02:41:41.336Z,8.40
2023-02-05T02:44:07.711Z,8.40
2023-02-05T02:46:34.399Z,8.40
2023-02-05T02:49:00.850Z,8.40
2023-02-05T02:51:27.272Z,8.30
2023-02-05T02:53:53.726Z,8.40
2023-02-05T02:56:20.123Z,8.40
2023-02-05T02:58:46.586Z,8.40
2023-02-05T03:01:13.018Z,8.40
2023-02-05T03:03:39.460Z,8.40
2023-02-05T03:06:05.871Z,8.50
2023-02-05T03:08:32.342Z,8.40
2023-02-05T03:10:58.779Z,8.40
2023-02-05T03:13:25.211Z,8.40
2023-02-05T03:15:51.652Z,8.40
2023-02-05T03:18:18.126Z,8.40
2023-02-05T03:20:44.572Z,8.40
2023-02-05T03:23:10.996Z,8.40
2023-02-05T03:25:37.431Z,8.30
2023-02-05T03:28:03.855Z,8.30
2023-02-05T03:30:30.277Z,8.30
2023-02-05T03:32:56.708Z,8.40
2023-02-05T03:35:23.159Z,8.40
2023-02-05T03:37:49.610Z,8.30
2023-02-05T03:40:16.244Z,8.30
2023-02-05T03:42:42.675Z,8.30
2023-02-05T03:45:09.072Z,8.30
2023-02-05T03:47:35.446Z,8.30
2023-02-05T03:50:01.896Z,8.20
2023-02-05T03:52:28.340Z,8.20
2023-02-05T03:54:54.746Z,8.20
2023-02-05T03:57:21.184Z,8.20
2023-02-05T03:59:47.609Z,8.20
2023-02-05T04:02:14.095Z,8.20
2023-02-05T04:04:40.501Z,8.20
2023-02-05T04:07:06.875Z,8.20
2023-02-05T04:09:33.314Z,8.20
2023-02-05T04:11:59.706Z,8.20
2023-02-05T04:14:26.145Z,8.20
2023-02-05T04:16:52.525Z,8.30
2023-02-05T04:19:18.898Z,8.30
2023-02-05T04:21:45.351Z,8.30
2023-02-05T04:24:11.730Z,8.30
2023-02-05T04:26:38.165Z,8.30
2023-02-05T04:29:04.571Z,8.40
2023-02-05T04:31:31.029Z,8.40
2023-02-05T04:33:57.535Z,8.40
2023-02-05T04:36:23.938Z,8.40
2023-02-05T04:38:50.369Z,8.40
2023-02-05T04:41:16.773Z,8.40
2023-02-05T04:43:43.158Z,8.40
2023-02-05T04:46:09.576Z,8.40
2023-02-05T04:48:36.080Z,8.40
2023-02-05T04:51:02.458Z,8.40
2023-02-05T04:53:28.891Z,8.40
2023-02-05T04:55:55.270Z,8.30
2023-02-05T04:58:21.649Z,8.30
2023-02-05T05:00:48.111Z,8.30
2023-02-05T05:03:14.540Z,8.30
2023-02-05T05:05:40.981Z,8.30
2023-02-05T05:08:07.428Z,8.30
2023-02-05T05:10:33.817Z,8.20
2023-02-05T05:13:00.242Z,8.20
2023-02-05T05:15:26.671Z,8.20
2023-02-05T05:17:53.107Z,8.20
2023-02-05T05:20:19.480Z,8.20
2023-02-05T05:22:45.899Z,8.20
2023-02-05T05:25:12.288Z,8.10
2023-02-05T05:27:38.714Z,8.10
2023-02-05T05:30:05.100Z,8.20
2023-02-05T05:32:31.474Z,8.20
2023-02-05T05:34:57.906Z,8.10
2023-02-05T05:37:24.299Z,8.20
2023-02-05T05:39:50.676Z,8.20
2023-02-05T05:42:17.165Z,8.20
2023-02-05T05:44:43.598Z,8.20
2023-02-05T05:47:10.056Z,8.20
2023-02-05T05:49:36.491Z,8.20
2023-02-05T05:52:02.891Z,8.20
2023-02-05T05:54:29.260Z,8.20
2023-02-05T05:56:55.624Z,8.20
2023-02-05T05:59:22.052Z,8.20
2023-02-05T06:01:48.416Z,8.20
2023-02-05T06:04:14.926Z,8.20
2023-02-05T06:06:41.338Z,8.30
2023-02-05T06:09:07.718Z,8.30
2023-02-05T06:11:34.098Z,8.30
2023-02-05T06:14:00.480Z,8.30
2023-02-05T06:16:26.922Z,8.30
2023-02-05T06:18:53.364Z,8.30
2023-02-05T06:21:19.813Z,8.30
2023-02-05T06:23:46.254Z,8.30
2023-02-05T06:26:12.707Z,8.30
2023-02-05T06:28:39.105Z,8.20
2023-02-05T06:31:05.616Z,8.20
2023-02-05T06:33:32.054Z,8.20
2023-02-05T06:35:58.434Z,8.20
2023-02-05T06:38:24.852Z,8.20
2023-02-05T06:40:51.254Z,8.10
2023-02-05T06:43:17.623Z,8.10
2023-02-05T06:45:44.038Z,8.00
2023-02-05T06:48:10.425Z,7.90
2023-02-05T06:50:36.809Z,7.80
2023-02-05T06:53:03.205Z,7.80
2023-02-05T06:55:29.627Z,7.70
2023-02-05T06:57:56.008Z,7.60
2023-02-05T07:00:22.430Z,7.60
2023-02-05T07:02:48.852Z,7.50
2023-02-05T07:05:15.246Z,7.40
2023-02-05T07:07:41.692Z,7.40
2023-02-05T07:10:08.144Z,7.40
2023-02-05T07:12:34.577Z,7.30
2023-02-05T07:15:00.980Z,7.30
2023-02-05T07:17:27.433Z,7.30
2023-02-05T07:19:53.825Z,7.30
2023-02-05T07:22:20.211Z,7.30
2023-02-05T07:24:46.692Z,7.30
2023-02-05T07:27:13.083Z,7.30
2023-02-05T07:29:39.512Z,7.30
2023-02-05T07:32:06.077Z,7.30
2023-02-05T07:34:32.540Z,7.30
2023-02-05T07:36:58.990Z,7.30
2023-02-05T07:39:25.412Z,7.20
2023-02-05T07:41:51.783Z,7.20
2023-02-05T07:44:18.212Z,7.20
2023-02-05T07:46:44.669Z,7.20
2023-02-05T07:49:11.150Z,7.20
2023-02-05T07:51:37.553Z,7.20
2023-02-05T07:54:04.033Z,7.20
2023-02-05T07:56:30.472Z,7.20
2023-02-05T07:58:56.915Z,7.20
2023-02-05T08:01:23.377Z,7.20
2023-02-05T08:03:49.838Z,7.10
2023-02-05T08:06:17.198Z,7.20
2023-02-05T08:08:43.585Z,7.20
2023-02-05T08:11:09.963Z,7.30
2023-02-05T08:13:36.397Z,7.30
2023-02-05T08:16:02.826Z,7.30
2023-02-05T08:18:29.252Z,7.40
2023-02-05T08:20:55.630Z,7.40
2023-02-05T08:23:22.000Z,7.40
2023-02-05T08:25:48.446Z,7.50
2023-02-05T08:28:14.961Z,7.50
2023-02-05T08:30:41.447Z,7.50
2023-02-05T08:33:07.858Z,7.60
2023-02-05T08:35:34.578Z,7.60
2023-02-05T08:38:01.208Z,7.60
2023-02-05T08:40:27.616Z,7.60
2023-02-05T08:42:54.010Z,7.60
2023-02-05T08:45:20.377Z,7.60
2023-02-05T08:47:46.791Z,7.60
2023-02-05T08:50:13.234Z,7.60
2023-02-05T08:52:39.684Z,7.60
2023-02-05T08:55:06.129Z,7.60
2023-02-05T08:57:32.510Z,7.70
2023-02-05T08:59:58.895Z,7.70
2023-02-05T09:02:28.484Z,7.70
2023-02-05T09:05:07.672Z,7.70
2023-02-05T09:07:35.183Z,7.70
2023-02-05T09:10:01.611Z,7.70
2023-02-05T09:12:28.083Z,7.70
2023-02-05T09:14:54.475Z,7.70
2023-02-05T09:17:20.876Z,7.70
2023-02-05T09:19:47.609Z,7.70
2023-02-05T09:22:14.100Z,7.80
2023-02-05T09:24:40.512Z,7.80
2023-02-05T09:27:06.919Z,7.80
2023-02-05T09:29:33.308Z,7.90
2023-02-05T09:31:59.718Z,7.80
2023-02-05T09:34:26.160Z,7.90
2023-02-05T09:36:52.574Z,7.90
2023-02-05T09:39:47.004Z,7.90
2023-02-05T09:42:05.318Z,7.90
2023-02-05T09:44:31.763Z,8.00
2023-02-05T09:46:58.164Z,8.00
2023-02-05T09:49:24.566Z,8.00
2023-02-05T09:51:50.934Z,8.00
2023-02-05T09:54:17.645Z,8.00
2023-02-05T09:56:44.073Z,8.10
2023-02-05T09:59:10.473Z,8.10
2023-02-05T10:01:36.889Z,8.10
2023-02-05T10:04:03.436Z,8.10
2023-02-05T10:06:29.827Z,8.10
2023-02-05T10:08:56.264Z,8.20
2023-02-05T10:11:22.652Z,8.20
2023-02-05T10:13:49.034Z,8.20
2023-02-05T10:16:15.631Z,8.30
2023-02-05T10:18:42.124Z,8.20
2023-02-05T10:21:08.530Z,8.30
2023-02-05T10:23:34.962Z,8.30
2023-02-05T10:26:01.423Z,8.30
2023-02-05T10:28:27.810Z,8.30
2023-02-05T10:30:54.266Z,8.30
2023-02-05T10:33:20.760Z,8.30
2023-02-05T10:35:47.708Z,8.30
2023-02-05T10:38:14.184Z,8.30
2023-02-05T10:40:40.642Z,8.40
2023-02-05T10:43:07.064Z,8.40
2023-02-05T10:45:33.891Z,8.40
2023-02-05T10:48:00.436Z,8.40
2023-02-05T10:50:26.866Z,8.40
2023-02-05T10:52:53.342Z,8.50
2023-02-05T10:55:19.736Z,8.60
2023-02-05T10:57:46.116Z,8.70
2023-02-05T11:00:12.512Z,8.70
2023-02-05T11:02:39.027Z,8.80
2023-02-05T11:05:05.431Z,8.80
2023-02-05T11:07:31.829Z,8.90
2023-02-05T11:09:58.219Z,8.90
2023-02-05T11:12:24.679Z,8.90
2023-02-05T11:14:51.393Z,8.90
2023-02-05T11:17:17.845Z,8.90
2023-02-05T11:19:44.320Z,8.90
2023-02-05T11:22:10.736Z,9.00
2023-02-05T11:24:37.130Z,9.00
2023-02-05T11:27:03.595Z,9.00
2023-02-05T11:29:30.015Z,9.10
2023-02-05T11:31:56.613Z,9.20
2023-02-05T11:34:23.108Z,9.20
2023-02-05T11:36:49.574Z,9.30
2023-02-05T11:39:16.039Z,9.30
2023-02-05T11:41:42.480Z,9.30
2023-02-05T11:44:08.874Z,9.30
2023-02-05T11:46:35.408Z,9.40
2023-02-05T11:49:01.849Z,9.40
2023-02-05T11:51:28.258Z,9.30
2023-02-05T11:53:54.675Z,9.30
2023-02-05T11:56:22.774Z,9.30
2023-02-05T11:58:50.099Z,9.40
2023-02-05T12:01:16.630Z,9.40
2023-02-05T12:03:43.034Z,9.40
2023-02-05T12:06:09.407Z,9.40
2023-02-05T12:08:35.852Z,9.40
2023-02-05T12:11:02.305Z,9.40
2023-02-05T12:13:28.748Z,9.40
2023-02-05T12:15:55.191Z,9.40
2023-02-05T12:18:21.629Z,9.40
2023-02-05T12:20:48.070Z,9.40
2023-02-05T12:23:14.494Z,9.40
2023-02-05T12:25:42.598Z,9.50
2023-02-05T12:28:09.242Z,9.50
2023-02-05T12:30:35.734Z,9.50
2023-02-05T12:33:02.185Z,9.50
2023-02-05T12:35:28.616Z,9.40
2023-02-05T12:37:55.080Z,9.50
2023-02-05T12:40:21.476Z,9.50
2023-02-05T12:42:47.896Z,9.50
2023-02-05T12:45:14.293Z,9.50
2023-02-05T12:47:40.671Z,9.40
2023-02-05T12:50:07.053Z,9.40
2023-02-05T12:52:33.495Z,9.40
2023-02-05T12:54:59.888Z,9.40
2023-02-05T12:57:26.545Z,9.40
2023-02-05T12:59:52.938Z,9.40
2023-02-05T13:02:19.305Z,9.40
2023-02-05T13:04:45.676Z,9.50
2023-02-05T13:07:12.044Z,9.50
2023-02-05T13:09:38.483Z,9.50
2023-02-05T13:12:04.901Z,9.50
2023-02-05T13:14:31.342Z,9.50
2023-02-05T13:16:57.792Z,9.50
2023-02-05T13:19:24.186Z,9.40
2023-02-05T13:21:50.564Z,9.40
2023-02-05T13:24:16.981Z,9.40
2023-02-05T13:26:43.354Z,9.40
2023-02-05T13:29:09.735Z,9.40
2023-02-05T13:31:36.147Z,9.50
2023-02-05T13:34:02.558Z,9.50
2023-02-05T13:36:28.988Z,9.60
2023-02-05T13:38:55.394Z,9.70
2023-02-05T13:41:21.829Z,9.70
2023-02-05T13:43:48.212Z,9.80
2023-02-05T13:46:14.626Z,9.90
2023-02-05T13:48:41.018Z,9.80
2023-02-05T13:51:07.393Z,9.80
2023-02-05T13:53:33.835Z,9.80
2023-02-05T13:56:00.235Z,9.80
2023-02-05T13:58:26.625Z,9.80
2023-02-05T14:00:53.083Z,9.80
2023-02-05T14:03:19.541Z,9.80
2023-02-05T14:05:45.915Z,9.80
2023-02-05T14:08:12.344Z,9.80
2023-02-05T14:10:38.737Z,9.90
2023-02-05T14:13:05.113Z,9.80
2023-02-05T14:15:31.503Z,9.90
2023-02-05T14:17:57.876Z,9.90
2023-02-05T14:20:24.384Z,9.90
2023-02-05T14:22:50.794Z,9.90
2023-02-05T14:25:17.212Z,9.90
2023-02-05T14:27:43.595Z,9.90
2023-02-05T14:30:09.984Z,9.90
2023-02-05T14:32:36.367Z,9.90
2023-02-05T14:35:02.796Z,9.90
2023-02-05T14:37:29.177Z,9.90
2023-02-05T14:39:55.617Z,9.90
2023-02-05T14:42:22.023Z,9.80
2023-02-05T14:44:48.400Z,9.80
2023-02-05T14:47:14.774Z,9.70
2023-02-05T14:49:41.164Z,9.60
2023-02-05T14:52:07.560Z,9.60
2023-02-05T14:54:33.993Z,9.50
2023-02-05T14:57:00.384Z,9.50
2023-02-05T14:59:26.809Z,9.50
2023-02-05T15:01:54.545Z,9.40
2023-02-05T15:04:21.044Z,9.40
2023-02-05T15:06:47.560Z,9.30
2023-02-05T15:09:13.924Z,9.20
2023-02-05T15:11:40.294Z,9.20
2023-02-05T15:14:06.670Z,9.20
2023-02-05T15:16:33.102Z,9.20
2023-02-05T15:18:59.479Z,9.20
2023-02-05T15:21:25.849Z,9.20
2023-02-05T15:23:52.293Z,9.20
2023-02-05T15:26:18.733Z,9.20
2023-02-05T15:28:45.162Z,9.20
2023-02-05T15:31:11.612Z,9.10
2023-02-05T15:33:38.092Z,9.10
2023-02-05T15:36:04.552Z,9.00
2023-02-05T15:38:30.979Z,9.00
2023-02-05T15:40:57.428Z,8.90
2023-02-05T15:43:23.816Z,8.90
2023-02-05T15:45:50.248Z,8.90
2023-02-05T15:48:16.850Z,8.90
2023-02-05T15:50:43.281Z,8.90
2023-02-05T15:53:09.670Z,8.80
2023-02-05T15:55:36.355Z,8.80
2023-02-05T15:58:03.021Z,8.70
2023-02-05T16:00:29.425Z,8.70
2023-02-05T16:02:55.830Z,8.70
2023-02-05T16:05:22.286Z,8.70
2023-02-05T16:07:48.670Z,8.60
2023-02-05T16:10:15.095Z,8.60
2023-02-05T16:12:41.544Z,8.50
2023-02-05T16:15:07.948Z,8.50
2023-02-05T16:17:34.342Z,8.50
2023-02-05T16:20:00.718Z,8.50
2023-02-05T16:22:27.093Z,8.40
2023-02-05T16:24:53.480Z,8.30
2023-02-05T16:27:19.855Z,8.30
2023-02-05T16:29:48.379Z,8.30
2023-02-05T16:32:15.049Z,8.30
2023-02-05T16:34:41.502Z,8.30
2023-02-05T16:37:10.098Z,8.30
2023-02-05T16:39:36.676Z,8.30
2023-02-05T16:42:03.128Z,8.20
2023-02-05T16:44:29.571Z,8.20
2023-02-05T16:46:55.970Z,8.20
2023-02-05T16:49:22.407Z,8.10
2023-02-05T16:51:48.830Z,8.10
2023-02-05T16:54:15.273Z,8.10
2023-02-05T16:56:41.702Z,8.10
2023-02-05T16:59:08.129Z,8.00
2023-02-05T17:01:34.569Z,8.00
2023-02-05T17:04:01.014Z,7.90
2023-02-05T17:06:27.392Z,7.90
2023-02-05T17:08:53.761Z,7.90
2023-02-05T17:11:20.207Z,7.90
2023-02-05T17:13:46.752Z,7.80
2023-02-05T17:16:13.354Z,7.80
2023-02-05T17:18:39.838Z,7.80
2023-02-05T17:21:06.276Z,7.70
2023-02-05T17:23:32.657Z,7.70
2023-02-05T17:25:59.026Z,7.70
2023-02-05T17:28:25.489Z,7.70
2023-02-05T17:30:51.903Z,7.70
2023-02-05T17:33:18.350Z,7.60
2023-02-05T17:35:44.720Z,7.60
2023-02-05T17:38:11.141Z,7.50
2023-02-05T17:40:37.580Z,7.50
2023-02-05T17:43:04.013Z,7.50
2023-02-05T17:45:30.557Z,7.50
2023-02-05T17:47:57.056Z,7.40
2023-02-05T17:50:23.547Z,7.40
2023-02-05T17:52:49.990Z,7.40
2023-02-05T17:55:16.519Z,7.40
2023-02-05T17:57:42.954Z,7.30
2023-02-05T18:00:09.396Z,7.30
2023-02-05T18:02:35.924Z,7.30
2023-02-05T18:05:02.417Z,7.20
2023-02-05T18:07:28.844Z,7.20
2023-02-05T18:09:55.334Z,7.20
2023-02-05T18:12:21.812Z,7.20
2023-02-05T18:14:48.270Z,7.10
2023-02-05T18:17:14.746Z,7.10
2023-02-05T18:19:41.138Z,7.10
2023-02-05T18:22:07.900Z,7.10
2023-02-05T18:24:34.530Z,7.10
2023-02-05T18:27:00.890Z,7.00
2023-02-05T18:29:27.454Z,7.00
2023-02-05T18:31:53.937Z,7.00
2023-02-05T18:34:20.382Z,7.00
2023-02-05T18:42:15.054Z,6.90
2023-02-05T18:44:41.526Z,6.90
2023-02-05T18:47:08.006Z,6.90
2023-02-05T18:49:34.654Z,6.90
2023-02-05T18:52:01.029Z,6.90
2023-02-05T18:54:27.423Z,6.80
2023-02-05T18:56:53.841Z,6.80
2023-02-05T18:59:20.279Z,6.80
2023-02-05T19:01:46.888Z,6.80
2023-02-05T19:04:13.316Z,6.70
2023-02-05T19:06:39.680Z,6.70
2023-02-05T19:09:06.048Z,6.70
2023-02-05T19:11:32.474Z,6.60
2023-02-05T19:13:58.914Z,6.60
2023-02-05T19:16:25.300Z,6.60
2023-02-05T19:18:51.751Z,6.50
2023-02-05T19:21:18.206Z,6.50
2023-02-05T19:23:44.659Z,6.50
2023-02-05T19:26:11.080Z,6.50
2023-02-05T19:28:37.528Z,6.50
2023-02-05T19:31:04.109Z,6.50
2023-02-05T19:33:30.657Z,6.40
2023-02-05T19:35:57.136Z,6.40
2023-02-05T19:38:23.538Z,6.40
2023-02-05T19:40:49.988Z,6.30
2023-02-05T19:43:16.768Z,6.30
2023-02-05T19:45:43.217Z,6.30
2023-02-05T19:48:09.699Z,6.30
2023-02-05T19:50:36.500Z,6.30
2023-02-05T19:53:03.017Z,6.30
2023-02-05T19:55:29.506Z,6.30
2023-02-05T19:57:55.950Z,6.30
2023-02-05T20:00:22.503Z,6.20
2023-02-05T20:02:48.913Z,6.20
2023-02-05T20:05:15.306Z,6.20
2023-02-05T20:07:41.781Z,6.20
2023-02-05T20:10:08.218Z,6.10
2023-02-05T20:12:34.666Z,6.00
2023-02-05T20:15:01.074Z,5.80
2023-02-05T20:17:27.520Z,5.70
2023-02-05T20:19:59.689Z,5.50
2023-02-05T20:22:32.247Z,5.40
2023-02-05T20:24:58.646Z,5.30
2023-02-05T20:27:25.021Z,5.20
2023-02-05T20:29:51.441Z,5.20
2023-02-05T20:32:17.842Z,5.20
2023-02-05T20:34:45.278Z,5.20
2023-02-05T20:37:11.658Z,5.20
2023-02-05T20:39:38.189Z,5.20
2023-02-05T20:42:04.783Z,5.20
2023-02-05T20:44:31.178Z,5.10
2023-02-05T20:46:57.554Z,5.10
2023-02-05T20:49:24.018Z,5.20
2023-02-05T20:51:50.476Z,5.20
2023-02-05T20:54:16.902Z,5.20
2023-02-05T20:56:43.350Z,5.20
2023-02-05T20:59:09.761Z,5.20
2023-02-05T21:01:36.159Z,5.20
2023-02-05T21:04:02.576Z,5.20
2023-02-05T21:06:28.967Z,5.20
2023-02-05T21:08:55.411Z,5.10
2023-02-05T21:11:21.802Z,5.10
2023-02-05T21:13:48.178Z,4.90
2023-02-05T21:16:14.656Z,4.90
2023-02-05T21:18:41.094Z,4.90
2023-02-05T21:21:07.492Z,5.00
2023-02-05T21:23:33.946Z,5.00
2023-02-05T21:26:00.382Z,4.90
2023-02-05T21:28:26.763Z,4.90
2023-02-05T21:30:53.220Z,4.80
2023-02-05T21:33:19.642Z,4.70
2023-02-05T21:35:46.027Z,4.70
2023-02-05T21:38:12.461Z,4.60
2023-02-05T21:40:38.901Z,4.60
2023-02-05T21:43:05.423Z,4.60
2023-02-05T21:45:31.865Z,4.50
2023-02-05T21:47:58.251Z,4.50
2023-02-05T21:50:24.647Z,4.50
2023-02-05T21:52:51.082Z,4.60
2023-02-05T21:55:17.643Z,4.60
2023-02-05T21:57:44.034Z,4.60
2023-02-05T22:00:10.434Z,4.60
2023-02-05T22:02:36.868Z,4.60
2023-02-05T22:05:03.397Z,4.60
2023-02-05T22:07:29.847Z,4.60
2023-02-05T22:09:56.287Z,4.50
2023-02-05T22:12:22.752Z,4.40
2023-02-05T22:14:49.166Z,4.30
2023-02-05T22:17:15.538Z,4.20
2023-02-05T22:19:41.966Z,4.20
2023-02-05T22:22:08.407Z,4.30
2023-02-05T22:24:34.789Z,4.30
2023-02-05T22:27:01.265Z,4.30
2023-02-05T22:29:27.715Z,4.30
2023-02-05T22:31:54.226Z,4.30
2023-02-05T22:34:20.663Z,4.30
2023-02-05T22:36:47.086Z,4.30
2023-02-05T22:39:13.520Z,4.30
2023-02-05T22:41:39.963Z,4.30
2023-02-05T22:44:06.354Z,4.30
2023-02-05T22:46:32.758Z,4.30
2023-02-05T22:48:59.142Z,4.20
2023-02-05T22:51:25.590Z,4.20
2023-02-05T22:53:52.024Z,4.20
2023-02-05T22:56:18.467Z,4.10
2023-02-05T22:58:44.909Z,4.10
2023-02-05T23:01:11.378Z,4.10
2023-02-05T23:03:37.842Z,4.10
2023-02-05T23:06:04.611Z,4.20
2023-02-05T23:08:31.025Z,4.20
2023-02-05T23:10:57.458Z,4.20
2023-02-05T23:13:23.878Z,4.20
2023-02-05T23:15:50.253Z,4.20
2023-02-05T23:18:16.876Z,4.30
2023-02-05T23:20:43.332Z,4.30
2023-02-05T23:23:09.735Z,4.30
2023-02-05T23:25:36.462Z,4.30
2023-02-05T23:28:03.123Z,4.30
2023-02-05T23:30:29.942Z,4.20
2023-02-05T23:32:56.432Z,4.10
2023-02-05T23:35:22.834Z,4.10
2023-02-05T23:37:49.255Z,4.00
2023-02-05T23:40:15.712Z,4.00
2023-02-05T23:42:42.168Z,3.90
2023-02-05T23:45:08.616Z,3.80
2023-02-05T23:47:35.074Z,3.80
2023-02-05T23:50:01.448Z,3.70
2023-02-05T23:52:27.854Z,3.60
2023-02-05T23:54:54.279Z,3.60
2023-02-05T23:57:20.677Z,3.50
2023-02-05T23:59:47.053Z,3.50
